Aérodrome :
LOGIN :

S'inscrire | Disclaimer

   EN    FR    IT 

 










Légende :    VFR   VFR Marginal   IFR   IFR Intensif   IFR Très Intensif
Visi : 
Plafond : 
>= 8 km
>= 3000ft
5 à 8 km
1000 à 3000 ft
1500m à 5 km
500 à 1000 ft
800 à 1500m
200 à 500 ft
< 800m
< 200 ft
Symboles :   Orages  Brouillard  Fortes neiges  Fortes précipitations  Vent > 20 kt
SIGMETs :   Divers  Orages  Givrage  Turbulence  Onde Orograph.  Cendres Volcan.






- Altitude de l'aérodrome : 209 ft
- Code IATA : CLY


LFKC - Calvi

DERNIER METAR :
  • 271500Z AUTO 19018G31KT 9999 -RA FEW034/// SCT070/// BKN092/// ///TCU 11/08 Q1011 TEMPO SHRA SCT020CB BKN025

METARs EXPIRÉS :
  • 271430Z AUTO 20015KT 9999 -RA SCT036/// SCT042/// BKN049/// ///CB 11/07 Q1012 TEMPO SHRA BECMG 21015G35KT
  • 271400Z AUTO 20014KT 170V230 9999 -RA FEW031/// SCT037/// BKN060/// ///TCU 11/07 Q1012 TEMPO SHRA BECMG 21015G35KT
  • 271330Z AUTO 19012KT 9999 -RA BKN035/// BKN043/// BKN049/// ///TCU 11/07 Q1013 TEMPO SHRA BECMG 21015G35KT
  • 271300Z AUTO 19011KT 9999 -RADZ FEW032/// BKN040/// BKN048/// ///TCU 12/05 Q1014 TEMPO SHRA BECMG 21015G35KT
  • 271230Z AUTO 19014KT 160V220 9999 -RA FEW033 BKN048 BKN054 12/04 Q1014 TEMPO SHRA SCT020TCU BKN030 BECMG 21015G35KT

TAF TAF LFKC
Valide du 27 à 15h jusqu'au 28 à 15h UTC


271400Z 2715/2815 20020G35KT 9999 BKN035 TX15/2812Z TN09/2803Z
TEMPO 2715/2720 SHRA SCT020CB BKN025
BECMG 2803/2804 19005KT
ATIS : +33 4 95 65 82 49



MET'MAP, la Météo Aéronautique d'un coup d'oeil ! - Copyright ORBIFLY Décembre 2007 - Disclaimer

ORBIFLY MET'MAP TEAM :

Programmation & Développement : Alexandra Zaïnal
Sur une idée originale de : Baudouin d'Aumeries
Assistance à la programmation : Marc-Olivier Méhu
Soutien technique & logistique : Manuel Goepfert

Contact : metmap@orbifly.com




SOURCES & CREDITS :

   NOAA